createdAt,value
2023-04-05T00:01:15.890Z,92.87
2023-04-05T00:03:44.325Z,162.07
2023-04-05T00:06:16.583Z,141.93
2023-04-05T00:08:50.300Z,69.80
2023-04-05T00:11:19.048Z,88.07
2023-04-05T00:13:47.338Z,80.10
2023-04-05T00:16:16.317Z,82.97
2023-04-05T00:18:49.924Z,94.50
2023-04-05T00:21:18.414Z,86.70
2023-04-05T00:23:48.750Z,89.53
2023-04-05T00:26:16.908Z,88.70
2023-04-05T00:28:45.129Z,81.83
2023-04-05T00:31:13.456Z,69.50
2023-04-05T00:33:41.925Z,66.17
2023-04-05T00:36:11.659Z,54.93
2023-04-05T00:38:40.661Z,53.60
2023-04-05T00:41:10.310Z,50.20
2023-04-05T00:43:38.642Z,58.30
2023-04-05T00:46:07.593Z,59.10
2023-04-05T00:48:36.673Z,55.13
2023-04-05T00:51:05.062Z,57.80
2023-04-05T00:53:33.320Z,53.07
2023-04-05T00:56:03.145Z,49.37
2023-04-05T00:58:33.878Z,45.90
2023-04-05T01:01:06.861Z,56.53
2023-04-05T01:03:38.997Z,49.20
2023-04-05T01:06:23.344Z,48.47
2023-04-05T01:09:06.476Z,47.60
2023-04-05T01:11:36.512Z,40.67
2023-04-05T01:14:06.280Z,42.43
2023-04-05T01:16:34.488Z,38.97
2023-04-05T01:19:04.244Z,36.70
2023-04-05T01:22:17.494Z,41.77
2023-04-05T01:25:11.952Z,42.20
2023-04-05T01:27:57.263Z,37.27
2023-04-05T01:30:31.254Z,34.13
2023-04-05T01:33:11.164Z,33.57
2023-04-05T01:35:45.327Z,33.80
2023-04-05T01:38:19.031Z,32.10
2023-04-05T01:40:48.483Z,37.73
2023-04-05T01:43:18.866Z,31.67
2023-04-05T01:45:48.743Z,37.13
2023-04-05T01:48:17.114Z,28.97
2023-04-05T01:50:45.757Z,34.37
2023-04-05T01:53:13.943Z,39.23
2023-04-05T01:55:42.115Z,35.93
2023-04-05T01:58:10.277Z,39.67
2023-04-05T02:00:38.533Z,40.23
2023-04-05T02:03:08.212Z,41.43
2023-04-05T02:05:36.347Z,41.23
2023-04-05T02:08:04.454Z,35.00
2023-04-05T02:10:32.741Z,34.77
2023-04-05T02:13:01.020Z,41.23
2023-04-05T02:15:30.038Z,38.30
2023-04-05T02:18:02.129Z,36.53
2023-04-05T02:20:32.997Z,41.63
2023-04-05T02:23:02.244Z,32.77
2023-04-05T02:25:30.624Z,36.53
2023-04-05T02:27:58.752Z,36.43
2023-04-05T02:30:29.233Z,32.03
2023-04-05T02:32:57.471Z,37.20
2023-04-05T02:35:26.021Z,39.93
2023-04-05T02:37:56.654Z,36.20
2023-04-05T02:40:25.342Z,37.37
2023-04-05T02:42:53.535Z,37.80
2023-04-05T02:45:21.640Z,38.70
2023-04-05T02:47:49.838Z,39.67
2023-04-05T02:50:20.522Z,33.60
2023-04-05T02:52:48.919Z,42.37
2023-04-05T02:55:19.098Z,38.13
2023-04-05T02:57:47.360Z,39.90
2023-04-05T03:00:16.644Z,38.77
2023-04-05T03:02:44.839Z,36.27
2023-04-05T03:05:13.953Z,37.83
2023-04-05T03:07:42.763Z,41.60
2023-04-05T03:10:10.891Z,37.63
2023-04-05T03:12:40.521Z,43.80
2023-04-05T03:15:09.973Z,40.50
2023-04-05T03:17:38.183Z,47.47
2023-04-05T03:20:09.019Z,44.80
2023-04-05T03:22:37.329Z,52.30
2023-04-05T03:25:06.504Z,40.60
2023-04-05T03:27:34.694Z,43.30
2023-04-05T03:30:04.428Z,42.40
2023-04-05T03:32:32.613Z,44.37
2023-04-05T03:35:01.036Z,51.47
2023-04-05T03:37:29.216Z,45.57
2023-04-05T03:39:58.130Z,44.43
2023-04-05T03:42:26.353Z,47.30
2023-04-05T03:44:54.991Z,44.43
2023-04-05T03:47:24.598Z,43.23
2023-04-05T03:49:52.766Z,58.67
2023-04-05T03:52:21.023Z,144.20
2023-04-05T03:54:49.199Z,142.53
2023-04-05T03:57:17.640Z,47.93
2023-04-05T03:59:46.359Z,47.67
2023-04-05T04:02:14.550Z,46.20
2023-04-05T04:04:44.104Z,46.67
2023-04-05T04:07:12.260Z,57.10
2023-04-05T04:09:40.371Z,49.67
2023-04-05T04:12:08.748Z,48.57
2023-04-05T04:14:37.617Z,47.63
2023-04-05T04:17:05.858Z,43.10
2023-04-05T04:19:34.137Z,45.47
2023-04-05T04:22:04.370Z,43.77
2023-04-05T04:24:32.673Z,38.83
2023-04-05T04:27:00.847Z,49.70
2023-04-05T04:29:31.311Z,45.20
2023-04-05T04:32:01.112Z,41.97
2023-04-05T04:34:30.593Z,40.47
2023-04-05T04:37:01.692Z,41.60
2023-04-05T04:39:32.879Z,49.87
2023-04-05T04:42:01.398Z,39.53
2023-04-05T04:44:31.331Z,51.10
2023-04-05T04:46:59.870Z,43.83
2023-04-05T04:49:28.331Z,58.83
2023-04-05T04:51:58.571Z,71.13
2023-04-05T04:54:28.794Z,60.43
2023-04-05T04:56:58.349Z,53.07
2023-04-05T04:59:26.629Z,58.10
2023-04-05T05:01:54.816Z,64.77
2023-04-05T05:04:23.034Z,36.13
2023-04-05T05:06:52.753Z,66.87
2023-04-05T05:09:20.907Z,45.07
2023-04-05T05:11:49.018Z,47.20
2023-04-05T05:14:18.566Z,40.10
2023-04-05T05:16:46.910Z,40.50
2023-04-05T05:19:15.115Z,44.73
2023-04-05T05:21:43.265Z,42.10
2023-04-05T05:24:11.402Z,41.13
2023-04-05T05:26:39.506Z,43.07
2023-04-05T05:29:07.618Z,44.40
2023-04-05T05:31:37.215Z,44.77
2023-04-05T05:34:06.343Z,37.77
2023-04-05T05:36:34.637Z,41.47
2023-04-05T05:39:05.143Z,47.13
2023-04-05T05:41:33.302Z,39.60
2023-04-05T05:44:01.472Z,37.87
2023-04-05T05:46:29.618Z,55.67
2023-04-05T05:48:59.180Z,41.40
2023-04-05T05:51:27.363Z,46.73
2023-04-05T05:53:55.832Z,44.07
2023-04-05T05:56:23.962Z,49.80
2023-04-05T05:58:52.136Z,48.80
2023-04-05T06:01:22.892Z,37.67
2023-04-05T06:03:51.491Z,56.00
2023-04-05T06:06:21.840Z,38.10
2023-04-05T06:08:51.414Z,29.37
2023-04-05T06:11:21.570Z,29.87
2023-04-05T06:13:50.126Z,31.27
2023-04-05T06:16:18.353Z,32.23
2023-04-05T06:18:46.515Z,31.83
2023-04-05T06:21:14.672Z,34.53
2023-04-05T06:23:44.233Z,42.47
2023-04-05T06:26:18.697Z,35.30
2023-04-05T06:28:48.082Z,32.13
2023-04-05T06:31:17.624Z,30.40
2023-04-05T06:33:46.241Z,26.30
2023-04-05T06:36:14.435Z,27.77
2023-04-05T06:38:44.083Z,36.93
2023-04-05T06:41:12.473Z,26.50
2023-04-05T06:43:40.610Z,24.00
2023-04-05T06:46:11.608Z,24.27
2023-04-05T06:48:39.939Z,25.50
2023-04-05T06:51:08.200Z,25.93
2023-04-05T06:53:36.692Z,26.10
2023-04-05T06:56:06.682Z,28.60
2023-04-05T06:58:35.114Z,25.57
2023-04-05T07:01:04.010Z,28.07
2023-04-05T07:03:32.639Z,24.57
2023-04-05T07:06:02.698Z,26.10
2023-04-05T07:08:34.082Z,22.17
2023-04-05T07:11:02.488Z,32.50
2023-04-05T07:13:32.016Z,21.33
2023-04-05T07:16:04.210Z,17.23
2023-04-05T07:18:32.441Z,19.77
2023-04-05T07:21:01.848Z,20.83
2023-04-05T07:23:30.301Z,21.17
2023-04-05T07:26:04.475Z,18.77
2023-04-05T07:28:35.604Z,15.70
2023-04-05T07:31:04.435Z,14.97
2023-04-05T07:33:32.850Z,15.80
2023-04-05T07:36:01.632Z,14.50
2023-04-05T07:38:30.855Z,17.10
2023-04-05T07:40:59.108Z,16.57
2023-04-05T07:43:27.467Z,21.63
2023-04-05T07:46:03.361Z,19.43
2023-04-05T07:48:31.991Z,17.63
2023-04-05T07:51:05.171Z,16.03
2023-04-05T07:53:33.282Z,20.10
2023-04-05T07:56:05.580Z,25.57
2023-04-05T07:58:33.867Z,19.40
2023-04-05T08:01:03.850Z,17.43
2023-04-05T08:03:32.632Z,25.37
2023-04-05T08:06:00.952Z,18.93
2023-04-05T08:08:29.109Z,21.97
2023-04-05T08:10:57.321Z,26.27
2023-04-05T08:13:25.669Z,21.07
2023-04-05T08:15:57.384Z,21.17
2023-04-05T08:18:26.939Z,23.83
2023-04-05T08:20:56.413Z,18.87
2023-04-05T08:23:24.962Z,21.43
2023-04-05T08:25:53.127Z,19.37
2023-04-05T08:28:21.457Z,20.67
2023-04-05T08:30:49.804Z,19.57
2023-04-05T08:33:17.944Z,20.97
2023-04-05T08:35:47.507Z,22.33
2023-04-05T08:38:16.040Z,20.90
2023-04-05T08:40:47.003Z,19.03
2023-04-05T08:43:20.469Z,15.77
2023-04-05T08:45:51.366Z,18.33
2023-04-05T08:48:20.601Z,15.93
2023-04-05T08:50:54.149Z,15.00
2023-04-05T08:53:22.454Z,15.13
2023-04-05T08:55:52.545Z,15.70
2023-04-05T08:58:23.327Z,11.57
2023-04-05T09:00:52.032Z,15.47
2023-04-05T09:03:23.100Z,12.07
2023-04-05T09:05:54.046Z,10.50
2023-04-05T09:08:22.404Z,7.03
2023-04-05T09:10:52.502Z,5.70
2023-04-05T09:13:20.685Z,6.47
2023-04-05T09:15:49.466Z,10.23
2023-04-05T09:18:26.197Z,12.27
2023-04-05T09:21:04.827Z,7.23
2023-04-05T09:23:33.232Z,10.97
2023-04-05T09:26:01.405Z,9.07
2023-04-05T09:28:43.846Z,8.10
2023-04-05T09:31:30.191Z,6.77
2023-04-05T09:34:01.043Z,5.47
2023-04-05T09:36:30.640Z,7.80
2023-04-05T09:39:08.704Z,7.23
2023-04-05T09:41:37.524Z,9.00
2023-04-05T09:44:06.127Z,6.03
2023-04-05T09:46:37.986Z,3.97
2023-04-05T09:49:09.488Z,6.23
2023-04-05T09:51:40.281Z,2.80
2023-04-05T09:54:10.391Z,5.22
2023-04-05T09:56:40.423Z,3.70
2023-04-05T09:59:10.789Z,8.60
2023-04-05T10:01:41.428Z,3.63
2023-04-05T10:04:10.410Z,5.27
2023-04-05T10:06:41.152Z,5.83
2023-04-05T10:09:11.438Z,6.50
2023-04-05T10:11:40.453Z,6.63
2023-04-05T10:14:09.778Z,4.50
2023-04-05T10:16:46.375Z,4.50
2023-04-05T10:19:22.617Z,3.90
2023-04-05T10:21:55.096Z,5.53
2023-04-05T10:24:36.656Z,5.60
2023-04-05T10:27:10.378Z,6.20
2023-04-05T10:29:45.856Z,2.57
2023-04-05T10:32:21.809Z,4.75
2023-04-05T10:34:57.721Z,3.97
2023-04-05T10:37:37.282Z,6.00
2023-04-05T10:40:09.494Z,4.53
2023-04-05T10:42:43.736Z,10.93
2023-04-05T10:45:15.509Z,6.40
2023-04-05T10:47:49.237Z,5.60
2023-04-05T10:50:23.664Z,3.63
2023-04-05T10:52:54.083Z,4.67
2023-04-05T10:55:22.830Z,4.63
2023-04-05T10:57:51.797Z,4.83
2023-04-05T11:00:20.854Z,8.43
2023-04-05T11:02:54.906Z,3.97
2023-04-05T11:05:34.106Z,6.83
2023-04-05T11:08:06.458Z,2.90
2023-04-05T11:10:36.869Z,6.37
2023-04-05T11:13:06.835Z,7.10
2023-04-05T11:15:36.358Z,4.07
2023-04-05T11:18:10.519Z,8.10
2023-04-05T11:20:47.201Z,5.00
2023-04-05T11:23:18.694Z,6.23
2023-04-05T11:25:53.552Z,3.87
2023-04-05T11:28:26.184Z,4.67
2023-04-05T11:30:57.216Z,4.53
2023-04-05T11:33:59.531Z,5.83
2023-04-05T11:36:38.005Z,6.20
2023-04-05T11:39:27.297Z,5.73
2023-04-05T11:41:58.034Z,5.67
2023-04-05T11:44:26.241Z,3.83
2023-04-05T11:46:55.310Z,4.63
2023-04-05T11:49:24.660Z,3.33
2023-04-05T11:51:53.611Z,5.27
2023-04-05T11:54:32.747Z,5.97
2023-04-05T11:57:01.412Z,4.87
2023-04-05T11:59:33.916Z,5.07
2023-04-05T12:02:04.034Z,3.40
2023-04-05T12:04:32.374Z,4.60
2023-04-05T12:07:13.606Z,5.40
2023-04-05T12:10:08.608Z,3.80
2023-04-05T12:12:38.824Z,3.67
2023-04-05T12:15:10.634Z,3.67
2023-04-05T12:17:43.688Z,5.60
2023-04-05T12:20:13.162Z,7.67
2023-04-05T12:22:43.320Z,4.23
2023-04-05T12:25:14.218Z,6.00
2023-04-05T12:27:42.710Z,4.37
2023-04-05T12:30:16.841Z,3.67
2023-04-05T12:32:47.038Z,4.83
2023-04-05T12:35:18.029Z,7.07
2023-04-05T12:37:46.583Z,3.00
2023-04-05T12:40:21.242Z,5.17
2023-04-05T12:42:49.550Z,5.50
2023-04-05T12:45:18.535Z,8.77
2023-04-05T12:47:51.648Z,6.07
2023-04-05T12:50:26.597Z,5.70
2023-04-05T12:52:55.817Z,9.30
2023-04-05T12:55:27.529Z,5.53
2023-04-05T12:57:59.415Z,7.07
2023-04-05T13:00:28.784Z,7.93
2023-04-05T13:02:58.886Z,5.90
2023-04-05T13:05:29.181Z,7.13
2023-04-05T13:07:57.675Z,6.50
2023-04-05T13:10:27.697Z,5.23
2023-04-05T13:12:55.990Z,5.53
2023-04-05T13:15:24.216Z,5.83
2023-04-05T13:17:53.471Z,4.73
2023-04-05T13:20:22.091Z,5.90
2023-04-05T13:22:50.258Z,7.30
2023-04-05T13:25:18.796Z,6.57
2023-04-05T13:27:48.366Z,6.07
2023-04-05T13:30:16.843Z,8.40
2023-04-05T13:32:45.096Z,5.87
2023-04-05T13:35:13.412Z,8.07
2023-04-05T13:37:41.502Z,5.67
2023-04-05T13:40:10.614Z,5.03
2023-04-05T13:42:39.111Z,6.80
2023-04-05T13:45:09.603Z,7.20
2023-04-05T13:47:37.796Z,6.43
2023-04-05T13:50:07.066Z,6.17
2023-04-05T13:52:35.283Z,6.00
2023-04-05T13:55:03.997Z,5.50
2023-04-05T13:57:32.713Z,5.57
2023-04-05T14:00:01.000Z,6.57
2023-04-05T14:02:30.791Z,5.20
2023-04-05T14:04:59.081Z,6.00
2023-04-05T14:07:27.311Z,4.57
2023-04-05T14:09:55.859Z,7.60
2023-04-05T14:12:24.654Z,7.23
2023-04-05T14:14:53.009Z,6.17
2023-04-05T14:17:21.296Z,12.37
2023-04-05T14:19:50.937Z,5.40
2023-04-05T14:22:19.187Z,9.30
2023-04-05T14:24:47.397Z,16.80
2023-04-05T14:27:15.605Z,7.00
2023-04-05T14:29:45.612Z,7.40
2023-04-05T14:32:13.997Z,7.23
2023-04-05T14:34:42.191Z,7.40
2023-04-05T14:37:12.314Z,7.17
2023-04-05T14:39:40.539Z,5.20
2023-04-05T14:42:08.746Z,6.97
2023-04-05T14:44:36.936Z,9.13
2023-04-05T14:47:05.756Z,7.53
2023-04-05T14:49:33.982Z,7.67
2023-04-05T14:52:02.480Z,7.73
2023-04-05T14:54:32.100Z,4.73
2023-04-05T14:57:00.368Z,7.47
2023-04-05T14:59:28.672Z,7.53
2023-04-05T15:01:56.948Z,6.93
2023-04-05T15:04:25.319Z,10.40
2023-04-05T15:06:53.561Z,8.77
2023-04-05T15:09:21.826Z,5.57
2023-04-05T15:11:51.822Z,8.27
2023-04-05T15:14:31.058Z,7.00
2023-04-05T15:17:00.822Z,6.07
2023-04-05T15:19:30.592Z,6.67
2023-04-05T15:21:58.976Z,10.53
2023-04-05T15:24:27.378Z,7.63
2023-04-05T15:27:02.120Z,7.45
2023-04-05T15:29:30.531Z,8.20
2023-04-05T15:31:59.054Z,7.23
2023-04-05T15:34:27.869Z,7.87
2023-04-05T15:36:56.639Z,11.07
2023-04-05T15:39:25.516Z,11.20
2023-04-05T15:41:53.871Z,7.60
2023-04-05T15:44:23.510Z,7.87
2023-04-05T15:46:51.778Z,8.13
2023-04-05T15:49:20.048Z,6.27
2023-04-05T15:51:48.344Z,8.50
2023-04-05T15:54:18.866Z,8.93
2023-04-05T15:56:47.408Z,10.00
2023-04-05T15:59:15.816Z,7.60
2023-04-05T16:01:45.539Z,6.83
2023-04-05T16:04:13.931Z,10.33
2023-04-05T16:06:42.202Z,10.60
2023-04-05T16:09:10.438Z,7.70
2023-04-05T16:11:38.785Z,9.73
2023-04-05T16:14:07.177Z,6.70
2023-04-05T16:16:46.047Z,8.17
2023-04-05T16:19:23.476Z,6.60
2023-04-05T16:21:52.872Z,7.57
2023-04-05T16:24:21.291Z,11.87
2023-04-05T16:26:49.671Z,9.60
2023-04-05T16:29:17.913Z,9.20
2023-04-05T16:31:47.509Z,8.70
2023-04-05T16:34:16.157Z,9.47
2023-04-05T16:36:45.987Z,10.57
2023-04-05T16:39:14.244Z,8.00
2023-04-05T16:41:42.615Z,11.33
2023-04-05T16:44:11.170Z,7.47
2023-04-05T16:46:39.920Z,13.63
2023-04-05T16:49:08.302Z,9.43
2023-04-05T16:51:37.130Z,10.63
2023-04-05T16:54:07.292Z,12.67
2023-04-05T16:56:36.927Z,10.07
2023-04-05T16:59:07.577Z,12.50
2023-04-05T17:01:36.669Z,11.70
2023-04-05T17:04:05.049Z,12.73
2023-04-05T17:06:33.463Z,13.63
2023-04-05T17:09:01.973Z,13.67
2023-04-05T17:11:32.021Z,13.30
2023-04-05T17:14:00.851Z,9.83
2023-04-05T17:16:29.274Z,7.97
2023-04-05T17:18:57.626Z,13.87
2023-04-05T17:21:25.986Z,15.67
2023-04-05T17:23:54.370Z,9.27
2023-04-05T17:26:23.970Z,9.20
2023-04-05T17:28:53.770Z,12.40
2023-04-05T17:31:22.062Z,11.43
2023-04-05T17:33:50.339Z,8.77
2023-04-05T17:36:19.100Z,12.90
2023-04-05T17:38:47.412Z,8.80
2023-04-05T17:41:15.645Z,13.40
2023-04-05T17:43:43.881Z,10.53
2023-04-05T17:46:15.113Z,11.10
2023-04-05T17:48:43.577Z,10.13
2023-04-05T17:51:11.868Z,13.27
2023-04-05T17:53:40.086Z,13.80
2023-04-05T17:56:08.362Z,15.43
2023-04-05T17:58:36.642Z,11.73
2023-04-05T18:01:05.015Z,9.63
2023-04-05T18:03:34.784Z,12.93
2023-04-05T18:06:03.111Z,12.87
2023-04-05T18:08:31.515Z,12.00
2023-04-05T18:11:00.596Z,12.03
2023-04-05T18:13:29.636Z,8.77
2023-04-05T18:15:58.690Z,9.93
2023-04-05T18:18:27.697Z,11.77
2023-04-05T18:20:57.939Z,11.80
2023-04-05T18:23:26.422Z,13.70
2023-04-05T18:25:55.119Z,13.23
2023-04-05T18:28:24.110Z,17.43
2023-04-05T18:30:52.662Z,13.30
2023-04-05T18:33:22.525Z,15.20
2023-04-05T18:35:51.278Z,12.67
2023-04-05T18:38:21.791Z,15.70
2023-04-05T18:40:50.133Z,14.07
2023-04-05T18:43:20.925Z,11.90
2023-04-05T18:45:49.193Z,11.00
2023-04-05T18:48:17.420Z,11.83
2023-04-05T18:50:46.055Z,11.70
2023-04-05T18:53:14.380Z,13.03
2023-04-05T18:55:44.106Z,13.50
2023-04-05T18:58:12.438Z,12.23
2023-04-05T19:00:40.695Z,13.23
2023-04-05T19:03:11.610Z,10.57
2023-04-05T19:05:39.945Z,10.80
2023-04-05T19:08:08.201Z,12.30
2023-04-05T19:10:36.716Z,14.83
2023-04-05T19:13:06.359Z,12.23
2023-04-05T19:15:34.909Z,10.67
2023-04-05T19:18:05.696Z,18.17
2023-04-05T19:20:33.957Z,20.67
2023-04-05T19:23:02.190Z,18.50
2023-04-05T19:25:31.792Z,16.33
2023-04-05T19:28:00.046Z,12.67
2023-04-05T19:30:30.057Z,13.43
2023-04-05T19:32:58.360Z,14.83
2023-04-05T19:35:26.610Z,16.90
2023-04-05T19:37:54.830Z,13.43
2023-04-05T19:40:24.572Z,18.73
2023-04-05T19:42:54.238Z,16.40
2023-04-05T19:45:27.208Z,19.17
2023-04-05T19:47:59.023Z,17.07
2023-04-05T19:50:48.771Z,15.63
2023-04-05T19:53:44.917Z,11.60
2023-04-05T19:56:16.384Z,16.50
2023-04-05T19:58:45.004Z,20.33
2023-04-05T20:01:21.990Z,18.07
2023-04-05T20:03:51.818Z,13.00
2023-04-05T20:06:21.116Z,17.37
2023-04-05T20:08:49.490Z,15.87
2023-04-05T20:11:18.760Z,13.33
2023-04-05T20:13:50.558Z,14.43
2023-04-05T20:16:19.728Z,17.23
2023-04-05T20:18:49.309Z,22.83
2023-04-05T20:21:20.161Z,29.93
2023-04-05T20:23:48.513Z,27.00
2023-04-05T20:26:18.826Z,31.30
2023-04-05T20:28:53.568Z,30.87
2023-04-05T20:31:23.746Z,28.53
2023-04-05T20:33:54.818Z,22.70
2023-04-05T20:36:31.449Z,22.20
2023-04-05T20:39:00.317Z,21.87
2023-04-05T20:41:29.075Z,24.53
2023-04-05T20:43:57.544Z,16.37
2023-04-05T20:46:26.165Z,22.27
2023-04-05T20:48:55.105Z,22.77
2023-04-05T20:51:24.843Z,19.53
2023-04-05T20:53:53.306Z,12.83
2023-04-05T20:56:21.589Z,15.00
2023-04-05T20:58:49.870Z,12.27
2023-04-05T21:01:18.224Z,14.90
2023-04-05T21:03:46.668Z,10.50
2023-04-05T21:06:15.030Z,9.17
2023-04-05T21:08:44.727Z,10.67
2023-04-05T21:11:12.964Z,10.93
2023-04-05T21:13:42.179Z,13.17
2023-04-05T21:16:10.637Z,11.73
2023-04-05T21:18:38.941Z,11.93
2023-04-05T21:21:07.264Z,13.87
2023-04-05T21:23:35.765Z,11.33
2023-04-05T21:26:06.059Z,15.30
2023-04-05T21:28:34.497Z,13.80
2023-04-05T21:31:02.787Z,12.03
2023-04-05T21:33:31.105Z,12.87
2023-04-05T21:35:59.499Z,13.00
2023-04-05T21:38:27.766Z,12.33
2023-04-05T21:40:56.461Z,14.33
2023-04-05T21:43:26.208Z,13.80
2023-04-05T21:45:54.440Z,11.60
2023-04-05T21:48:24.601Z,11.73
2023-04-05T21:50:53.060Z,14.37
2023-04-05T21:53:21.294Z,14.07
2023-04-05T21:55:49.568Z,14.30
2023-04-05T21:58:17.781Z,12.27
2023-04-05T22:00:47.468Z,11.67
2023-04-05T22:03:15.843Z,13.13
2023-04-05T22:05:44.107Z,12.10
2023-04-05T22:08:12.411Z,17.83
2023-04-05T22:10:41.021Z,14.63
2023-04-05T22:13:09.268Z,13.80
2023-04-05T22:15:37.492Z,9.30
2023-04-05T22:18:07.388Z,10.30
2023-04-05T22:20:35.794Z,12.43
2023-04-05T22:23:04.002Z,15.67
2023-04-05T22:25:32.287Z,13.23
2023-04-05T22:28:00.782Z,14.27
2023-04-05T22:30:40.887Z,12.67
2023-04-05T22:33:13.766Z,11.77
2023-04-05T22:35:42.702Z,12.57
2023-04-05T22:38:11.010Z,13.37
2023-04-05T22:40:39.468Z,13.10
2023-04-05T22:43:07.740Z,12.77
2023-04-05T22:45:36.015Z,13.50
2023-04-05T22:48:04.412Z,12.93
2023-04-05T22:50:34.219Z,10.73
2023-04-05T22:53:02.499Z,10.60
2023-04-05T22:55:31.228Z,12.63
2023-04-05T22:57:59.470Z,15.33
2023-04-05T23:00:27.916Z,14.67
2023-04-05T23:02:56.251Z,13.50
2023-04-05T23:05:24.866Z,12.47
2023-04-05T23:07:54.638Z,14.43
2023-04-05T23:10:22.959Z,8.53
2023-04-05T23:12:51.187Z,15.73
2023-04-05T23:15:19.543Z,17.67
2023-04-05T23:17:49.259Z,10.87
2023-04-05T23:20:17.588Z,17.20
2023-04-05T23:22:45.987Z,18.50
2023-04-05T23:25:15.619Z,21.90
2023-04-05T23:27:43.850Z,13.30
2023-04-05T23:30:12.952Z,14.17
2023-04-05T23:32:41.223Z,15.40
2023-04-05T23:35:10.249Z,8.57
2023-04-05T23:37:38.553Z,10.60
2023-04-05T23:40:08.230Z,11.47
2023-04-05T23:42:37.875Z,10.17
2023-04-05T23:45:09.049Z,8.87
2023-04-05T23:47:38.662Z,10.43
2023-04-05T23:50:08.237Z,20.33
2023-04-05T23:52:36.473Z,18.43
2023-04-05T23:55:05.262Z,13.50
2023-04-05T23:57:33.534Z,9.67
